Altamont, North Carolina
Current Conditions -  °F | °C
As of 4:35 PM on Thursday 27 Nov 2014 (Local Time) from KTNB Reporting Station
Light Snow Light Snow  
Wind Chill: 19°   Ceiling: Unl
Heat Index: 29°   Visibility: 5mi
Dew Point: 25°   Wind: 12mph
Humidity: 84%   Direction: 300°WNW
Pressure: 30.12"   Gusts: 24mph
Location:  36.0227°N, 81.9499°W
Report Text: KTNB 272135Z AUTO 30010G21KT 5SM -SN SCT017 SCT032 SCT110 M02/M04 A3012 RMK AO2 T10161040
Loading
Personal Weather Stations






























Interactive Weather Map New forecast layout! Learn more

10-Day Weather Forecast

Advertisements
Track Severe Weather on mobile